Terminal Aerodrome Forecast
Issued by NWS

Home | Current Version | Previous Version | Text Only | Print | Product List | Glossary On
Versions: 1 2 3 4 5 6 7 8 9 10 11 12 13 14 15 16 17 18
000
FTUS45 KRIW 170700 AAA
TAFCPR
TAF AMD
KCPR 170727Z 1707/1806 09006KT 2SM BR OVC005
     FM171100 VRB05KT P6SM VCFG SCT007 SCT090
     FM171400 21009KT P6SM FEW100 SCT200
     FM171900 24014G22KT P6SM SCT120 BKN250
     FM180100 22010KT P6SM FEW120 SCT250=

USA.gov is the U.S. government's official web portal to all federal, state and local government web resources and services.